Waarschuwingen Drenthe

Code Geel.Enkele onweersbuien, lokaal mogelijk met windstoten (meer dan 60 km/uur) en hagel.

Kans op blikseminslag, hagel en windstoten. Verkeer en buitenactiviteiten kunnen hinder ondervinden. Mijd open water en open gebied, schuil niet onder bomen. Volg weerberichten en waarschuwingen. (van 16/05/2022 18:00 tot 16/05/2022 21:00 uur)

Bron: KNMI



Webcam op het Zuiden Meer informatie Webcam op het Zuiden


Webcam op het Westen Meer informatie Webcam op het Westen


Onweer radar Meer informatie blitzortung!


Regen radar  rain snow radar


Lokaal brand risico:
CBI


Regionaal brand risico: Meer informatie


Lokaal brand risico:
Gebaseerd op actuele waarde
CBI


Bezoek ook deze websites:

Template documentation
and downloads

And another site



METAR rapporten vliegvelden

   
ETWM - Meppen, Germany
Afstand tot: O 29 km
Gewijzigd: 16-05-2022 07:20
Gedeeltelijk bewolkt  
Gedeeltelijk bewolkt  
   Wind: Oosten 9.3 km/h
Wind: Oosten 9.3 km/h
Temperatuur: 14°C
Dauwpunt: 7°C
Vochtigheid: 63%
Barometer: 1015 hPa
Bewolking: Gedeeltelijk bewolkt
Zicht: meer dan 10 km
Bewolking: Gedeeltelijk bewolkt 19000 ft,
Gedeeltelijk bewolkt 32000 ft
ETWM 160520Z 08005KT 9999 SCT190 SCT320 14/07 Q1015 BLU+
EHGG - Groningen/Eelde, Netherlands
Afstand tot: NNW 47 km
Gewijzigd: 16-05-2022 07:25
Gedeeltelijk bewolkt  
Gedeeltelijk bewolkt  
   Wind: Oosten 14.8 km/h
Wind: Oosten 14.8 km/h
Temperatuur: 13°C
Dauwpunt: 7°C
Vochtigheid: 67%
Barometer: 1014 hPa
Bewolking: Gedeeltelijk bewolkt
Zicht: meer dan 10 km
Bewolking: Gedeeltelijk bewolkt
EHGG 160525Z AUTO 09008KT 9999 NSC 13/07 Q1014 NOSIG
EDDG - Muenster/Osnabru, Germany
Afstand tot: ZO 87 km
Gewijzigd: 16-05-2022 07:50
Helder  
Helder  
   Wind: varieert 5.6 km/h
Wind: varieert 5.6 km/h
Temperatuur: 18°C
Dauwpunt: 9°C
Vochtigheid: 56%
Barometer: 1014 hPa
Zicht: meer dan 10 km
Bewolking: Helder
EDDG 160550Z VRB03KT CAVOK 18/09 Q1014 NOSIG
EHLW - Leeuwarden Rnlaf, Netherlands
Afstand tot: NW 93 km
Gewijzigd: 16-05-2022 07:25
Bewolking  
Bewolking  
   Wind: OZO 20.4 km/h
Wind: OZO 20.4 km/h
Temperatuur: 14°C
Dauwpunt: 8°C
Vochtigheid: 67%
Barometer: 1014 hPa
Bewolking: Bewolking
Zicht: meer dan 10 km
Bewolking: Bewolking 16000 ft
EHLW 160525Z AUTO 11011KT 050V170 9999 OVC160 14/08 Q1014 BLU
ETNT - Wittmundhaven(Ga, Germany
Afstand tot: NNO 100 km
Gewijzigd: 16-05-2022 07:20
Grotendeels bewolkt  
Grotendeels bewolkt  
   Wind: Oosten 13 km/h
Wind: Oosten 13 km/h
Temperatuur: 13°C
Dauwpunt: 7°C
Vochtigheid: 67%
Barometer: 1016 hPa
Bewolking: Grotendeels bewolkt
Zicht: meer dan 10 km
Bewolking: Licht bewolkt 20000 ft,
Grotendeels bewolkt 30000 ft
ETNT 160520Z 10007KT 9999 FEW200 BKN300 13/07 Q1016 BLACKBLU+
ETND - Diepholz (ger-Af, Germany
Afstand tot: O 104 km
Gewijzigd: 16-05-2022 07:20
Gedeeltelijk bewolkt  
Gedeeltelijk bewolkt  
   Wind: Oosten 11.1 km/h
Wind: Oosten 11.1 km/h
Temperatuur: 13°C
Dauwpunt: 6°C
Vochtigheid: 63%
Barometer: 1016 hPa
Bewolking: Gedeeltelijk bewolkt
Zicht: meer dan 10 km
Bewolking: Licht bewolkt 15000 ft,
Gedeeltelijk bewolkt 27000 ft
ETND 160520Z 09006KT 9999 FEW150 SCT270 13/06 Q1016 BLU+BLU+
ETNT - Wittmundhaven(Ga, Germany
Afstand tot: NNO 102 km
Gewijzigd: 16-05-2022 07:20
Grotendeels bewolkt  
Grotendeels bewolkt  
   Wind: Oosten 13 km/h
Wind: Oosten 13 km/h
Temperatuur: 13°C
Dauwpunt: 7°C
Vochtigheid: 67%
Barometer: 1016 hPa
Bewolking: Grotendeels bewolkt
Zicht: meer dan 10 km
Bewolking: Licht bewolkt 20000 ft,
Grotendeels bewolkt 30000 ft
ETNT 160520Z 10007KT 9999 FEW200 BKN300 13/07 Q1016 BLACKBLU+
EHDL - Deelen Rnlafb, Netherlands
Afstand tot: ZW 103 km
Gewijzigd: 16-05-2022 07:25
Helder  
Helder  
   Wind: OZO 11.1 km/h
Wind: OZO 11.1 km/h
Temperatuur: 17°C
Dauwpunt: 9°C
Vochtigheid: 59%
Barometer: 1013 hPa
Bewolking: Helder
Zicht: meer dan 10 km
Bewolking: Helder
EHDL 160525Z AUTO 11006KT 040V200 9999 NCD 17/09 Q1013 BLU
EHMA - Awg-1 Sea, Netherlands
Afstand tot: NW 105 km
Gewijzigd: 16-05-2022 07:25
Gedeeltelijk bewolkt  
Gedeeltelijk bewolkt  
   Wind: Oosten 29.6 km/h
Wind: Oosten 29.6 km/h
Temperatuur: 13°C
Dauwpunt: 9°C
Vochtigheid: 77%
Barometer: 1014 hPa
Bewolking: Gedeeltelijk bewolkt
Zicht: meer dan 10 km
Bewolking: Gedeeltelijk bewolkt
EHMA 160525Z AUTO 10016KT 9999 NSC 13/09 Q1014
EDDW - Bremen, Germany
Afstand tot: ONO 135 km
Gewijzigd: 16-05-2022 07:50
Helder  
Helder  
   Wind: OZO 20.4 km/h
Wind: OZO 20.4 km/h
Temperatuur: 14°C
Dauwpunt: 7°C
Vochtigheid: 63%
Barometer: 1017 hPa
Zicht: meer dan 10 km
Bewolking: Helder
EDDW 160550Z AUTO 11011KT CAVOK 14/07 Q1017 NOSIG
EHVL - Vlieland Island, Netherlands
Afstand tot: WNW 138 km
Gewijzigd: 16-05-2022 07:25
Bewolking  
Bewolking  
   Wind: Oosten 27.8 km/h
Wind: Oosten 27.8 km/h
Temperatuur: 14°C
Dauwpunt: 10°C
Vochtigheid: 77%
Barometer: 1013 hPa
Bewolking: Bewolking
Zicht: meer dan 10 km
Bewolking: Bewolking 17000 ft
EHVL 160525Z AUTO 10015KT 9999 OVC170 14/10 Q1013 BLU
EDLV - Niederrhein, Germany
Afstand tot: ZZW 139 km
Gewijzigd: 16-05-2022 07:20
Helder  
Helder  
   Wind: OZO 11.1 km/h
Wind: OZO 11.1 km/h
Temperatuur: 17°C
Dauwpunt: 10°C
Vochtigheid: 64%
Barometer: 1013 hPa
Zicht: meer dan 10 km
Bewolking: Helder
EDLV 160520Z 12006KT CAVOK 17/10 Q1013
EHKD - De Kooy (navy), Netherlands
Afstand tot: W 144 km
Gewijzigd: 16-05-2022 07:25
Bewolking  
Bewolking  
   Wind: Oosten 18.5 km/h
Wind: Oosten 18.5 km/h
Temperatuur: 15°C
Dauwpunt: 11°C
Vochtigheid: 77%
Barometer: 1012 hPa
Bewolking: Bewolking
Zicht: meer dan 10 km
Bewolking: Bewolking 15000 ft
EHKD 160525Z AUTO 10010KT 060V130 9999 OVC150 15/11 Q1012 BLU NOSIG
EDLW - Dortmund/Wickede, Germany
Afstand tot: ZZO 150 km
Gewijzigd: 16-05-2022 07:20
Helder  
Helder  
   Wind: NO 7.4 km/h
Wind: NO 7.4 km/h
Temperatuur: 13°C
Dauwpunt: 9°C
Vochtigheid: 77%
Barometer: 1013 hPa
Zicht: meer dan 10 km
Bewolking: Helder
EDLW 160520Z 05004KT CAVOK 13/09 Q1013
EHVK - Volkel Rnlafb, Netherlands
Afstand tot: ZZW 149 km
Gewijzigd: 16-05-2022 07:49
Bewolking  
Bewolking  
   Wind: OZO 11.1 km/h
Wind: OZO 11.1 km/h
Temperatuur: 18°C
Dauwpunt: 10°C
Vochtigheid: 60%
Barometer: 1012 hPa
Bewolking: Bewolking
Zicht: meer dan 10 km
Bewolking: Bewolking 14000 ft
EHVK 160549Z AUTO 12006KT 090V170 9999 OVC140 18/10 Q1012 BLU BECMG 18010KT
EDLW - Dortmund/Wickede, Germany
Afstand tot: ZZO 150 km
Gewijzigd: 16-05-2022 07:20
Helder  
Helder  
   Wind: NO 7.4 km/h
Wind: NO 7.4 km/h
Temperatuur: 13°C
Dauwpunt: 9°C
Vochtigheid: 77%
Barometer: 1013 hPa
Zicht: meer dan 10 km
Bewolking: Helder
EDLW 160520Z 05004KT CAVOK 13/09 Q1013
EHMG - L9-Ff-1 Sea, Netherlands
Afstand tot: NW 155 km
Gewijzigd: 16-05-2022 07:25
Gedeeltelijk bewolkt  
Gedeeltelijk bewolkt  
   Wind: Oosten 40.7 km/h
Wind: Oosten 40.7 km/h
Temperatuur: 13°C
Dauwpunt: 10°C
Vochtigheid: 82%
Barometer: 1014 hPa
Bewolking: Gedeeltelijk bewolkt
Zicht: meer dan 10 km
Bewolking: Gedeeltelijk bewolkt
EHMG 160525Z AUTO 10022KT 9999 NSC 13/10 Q1014
ETHB - Buckeburg(Ger-Ar, Germany
Afstand tot: OZO 161 km
Gewijzigd: 16-05-2022 07:20
Licht bewolkt  
Licht bewolkt  
   Wind: NNO 11.1 km/h
Wind: NNO 11.1 km/h
Temperatuur: 13°C
Dauwpunt: 7°C
Vochtigheid: 67%
Barometer: 1015 hPa
Bewolking: Licht bewolkt
Zicht: meer dan 10 km
Bewolking: Licht bewolkt 15000 ft
ETHB 160520Z 03006KT 9999 FEW150 13/07 Q1015 BLU+BLU+
ETMN - Nordholz (ger-Na, Germany
Afstand tot: NO 164 km
Gewijzigd: 16-05-2022 07:20
Gedeeltelijk bewolkt  
Gedeeltelijk bewolkt  
   Wind: Oosten 13 km/h
Wind: Oosten 13 km/h
Temperatuur: 11°C
Dauwpunt: 7°C
Vochtigheid: 77%
Barometer: 1017 hPa
Bewolking: Gedeeltelijk bewolkt
Zicht: meer dan 10 km
Bewolking: Licht bewolkt 16000 ft,
Gedeeltelijk bewolkt 32000 ft
ETMN 160520Z 09007KT 9999 FEW160 SCT320 11/07 Q1017 BLU+BLU+
EDDL - Duesseldorf, Germany
Afstand tot: Z 165 km
Gewijzigd: 16-05-2022 07:50
Helder  
Helder  
   Wind: ZZO 16.7 km/h
Wind: ZZO 16.7 km/h
Temperatuur: 19°C
Dauwpunt: 9°C
Vochtigheid: 52%
Barometer: 1013 hPa
Zicht: meer dan 10 km
Bewolking: Helder
EDDL 160550Z AUTO 16009KT 120V180 CAVOK 19/09 Q1013 NOSIG
EDLN - Monchengladbach, Germany
Afstand tot: Z 174 km
Gewijzigd: 16-05-2022 07:20
Grotendeels bewolkt  
Grotendeels bewolkt  
   Wind: varieert 3.7 km/h
Wind: varieert 3.7 km/h
Temperatuur: 17°C
Dauwpunt: 11°C
Vochtigheid: 68%
Barometer: 1013 hPa
Bewolking: Grotendeels bewolkt
Zicht: meer dan 10 km
Bewolking: Licht bewolkt 18000 ft,
Grotendeels bewolkt 21000 ft
EDLN 160520Z AUTO VRB02KT 9999 // FEW180/// BKN210/// 17/11 Q1013

Script ontwikkeld door  Saratoga-weather.org Aangepast voor de template door  Weerstation Leuven

U vindt ons ook hier:

Het Weer Aktueel

European Weather Network

Weather Underground

Wetterpage 24

Apparatuur in gebruik:

Weerstation
Davis VP2

Weerprogramma
Meteohub

Hardware
RaspberryPI, Wireless Weather Envoy, MeteoStick, TP-Link MR3020

Leverancier
Weerhuisje.nl weerstations

Davis VP2

Meteohub

RaspberryPI, Wireless Weather Envoy, MeteoStick, TP-Link MR3020

Weerhuisje.nl weerstations